| time (UTC) | temp F | wind direction | speed knots | gust knots | rain 1hr in | rain 24hr in | rain mn in | humidity % | barometer mb |
| 20260831235949 | 59 | 284 | 0.9 | 4.3 | 0.00 | 0.39 | 0.00 | 45 | 1022.0 |
| 20260831235049 | 58 | 306 | 0.0 | 1.7 | 0.00 | 0.39 | 0.00 | 43 | 1022.0 |
| 20260831234149 | 58 | 346 | 0.0 | 1.7 | 0.00 | 0.39 | 0.00 | 42 | 1021.9 |
| 20260831233249 | 58 | 349 | 0.0 | 2.6 | 0.00 | 0.39 | 0.00 | 41 | 1022.0 |
| 20260831232348 | 59 | 314 | 0.0 | 2.6 | 0.00 | 0.39 | 0.00 | 40 | 1021.8 |
| 20260831230549 | 60 | 320 | 0.0 | 3.5 | 0.00 | 0.39 | 0.00 | 37 | 1022.0 |
| 20260831225649 | 60 | 1 | 0.0 | 3.5 | 0.00 | 0.39 | 0.00 | 37 | 1021.8 |
| 20260831224749 | 60 | 343 | 0.9 | 5.2 | 0.00 | 0.39 | 0.00 | 37 | 1021.8 |
| 20260831223848 | 60 | 310 | 1.7 | 5.2 | 0.00 | 0.39 | 0.00 | 37 | 1021.6 |
| 20260831222948 | 60 | 347 | 0.0 | 2.6 | 0.00 | 0.39 | 0.00 | 36 | 1021.6 |
| 20260831222049 | 61 | 277 | 0.9 | 4.3 | 0.00 | 0.39 | 0.00 | 35 | 1021.4 |
| 20260831221149 | 61 | 252 | 0.0 | 2.6 | 0.00 | 0.39 | 0.00 | 34 | 1021.4 |
| 20260831220249 | 62 | 196 | 0.0 | 2.6 | 0.00 | 0.39 | 0.00 | 33 | 1021.3 |
| 20260831215348 | 62 | 314 | 0.0 | 3.5 | 0.00 | 0.39 | 0.39 | 33 | 1021.3 |
| 20260831214449 | 62 | 294 | 0.9 | 4.3 | 0.00 | 0.39 | 0.39 | 34 | 1021.4 |
| 20260831213549 | 62 | 298 | 0.0 | 4.3 | 0.00 | 0.39 | 0.39 | 36 | 1021.3 |
| 20260831212648 | 62 | 294 | 0.9 | 6.1 | 0.00 | 0.39 | 0.39 | 40 | 1021.3 |
| 20260831211748 | 61 | 308 | 0.0 | 4.3 | 0.00 | 0.39 | 0.39 | 47 | 1021.1 |
| 20260831210849 | 60 | 314 | 0.0 | 3.5 | 0.00 | 0.39 | 0.39 | 52 | 1021.0 |
| 20260831205948 | 59 | 314 | 1.7 | 3.5 | 0.00 | 0.39 | 0.39 | 55 | 1020.8 |
| 20260831205048 | 60 | 314 | 0.0 | 1.7 | 0.00 | 0.39 | 0.39 | 55 | 1020.6 |
| 20260831203249 | 59 | 314 | 0.0 | 0.9 | 0.00 | 0.39 | 0.39 | 57 | 1020.4 |
| 20260831202348 | 59 | 314 | 0.0 | 0.9 | 0.00 | 0.39 | 0.39 | 57 | 1020.2 |
| 20260831201449 | 58 | 314 | 0.0 | 0.9 | 0.00 | 0.39 | 0.39 | 56 | 1020.1 |
| 20260831200548 | 58 | 314 | 0.0 | 1.7 | 0.01 | 0.39 | 0.39 | 55 | 1020.1 |
| 20260831195648 | 58 | 314 | 0.0 | 1.7 | 0.01 | 0.39 | 0.39 | 55 | 1020.1 |
| 20260831194749 | 59 | 314 | 0.0 | 1.7 | 0.01 | 0.39 | 0.39 | 55 | 1020.1 |
| 20260831193849 | 60 | 314 | 0.0 | 0.9 | 0.01 | 0.39 | 0.39 | 55 | 1020.0 |
| 20260831192949 | 60 | 319 | 0.0 | 1.7 | 0.01 | 0.39 | 0.39 | 56 | 1020.1 |
| 20260831192049 | 59 | 338 | 0.9 | 1.7 | 0.01 | 0.39 | 0.39 | 56 | 1020.0 |
| 20260831191149 | 58 | 351 | 0.0 | 1.7 | 0.01 | 0.39 | 0.39 | 55 | 1019.9 |
| 20260831190249 | 58 | 341 | 0.0 | 1.7 | 0.00 | 0.38 | 0.38 | 54 | 1019.8 |
| 20260831185349 | 58 | 315 | 0.0 | 1.7 | 0.00 | 0.38 | 0.38 | 53 | 1019.7 |
| 20260831184449 | 58 | 314 | 0.0 | 1.7 | 0.00 | 0.38 | 0.38 | 50 | 1020.0 |
| 20260831183548 | 59 | 314 | 0.0 | 1.7 | 0.00 | 0.38 | 0.38 | 46 | 1019.8 |
| 20260831182649 | 59 | 314 | 0.0 | 1.7 | 0.00 | 0.38 | 0.38 | 43 | 1019.5 |
| 20260831181749 | 60 | 314 | 0.0 | 1.7 | 0.00 | 0.38 | 0.38 | 40 | 1019.4 |
| 20260831180848 | 61 | 314 | 0.0 | 1.7 | 0.00 | 0.38 | 0.38 | 37 | 1019.3 |
| 20260831175948 | 62 | 315 | 0.0 | 1.7 | 0.00 | 0.38 | 0.38 | 35 | 1019.1 |
| 20260831175048 | 63 | 314 | 0.0 | 1.7 | 0.00 | 0.38 | 0.38 | 31 | 1019.3 |
| 20260831174148 | 64 | 314 | 0.0 | 0.9 | 0.00 | 0.38 | 0.38 | 29 | 1019.0 |
| 20260831173248 | 65 | 314 | 0.0 | 0.9 | 0.00 | 0.38 | 0.38 | 26 | 1019.0 |
| 20260831172348 | 66 | 314 | 0.0 | 0.9 | 0.00 | 0.38 | 0.38 | 23 | 1019.0 |
| 20260831171448 | 68 | 314 | 0.0 | 1.7 | 0.00 | 0.38 | 0.38 | 18 | 1018.8 |
| 20260831170548 | 69 | 314 | 0.0 | 1.7 | 0.00 | 0.38 | 0.38 | 15 | 1018.8 |
| 20260831165648 | 69 | 314 | 0.0 | 1.7 | 0.00 | 0.38 | 0.38 | 15 | 1018.6 |
| 20260831164748 | 70 | 318 | 0.0 | 2.6 | 0.00 | 0.38 | 0.38 | 14 | 1018.7 |
| 20260831163848 | 70 | 314 | 0.0 | 1.7 | 0.00 | 0.38 | 0.38 | 13 | 1018.8 |
| 20260831162948 | 71 | 339 | 0.0 | 1.7 | 0.00 | 0.38 | 0.38 | 11 | 1018.8 |
| 20260831162048 | 72 | 1 | 0.0 | 3.5 | 0.00 | 0.38 | 0.38 | 10 | 1018.8 |
| 20260831161148 | 74 | 327 | 0.9 | 6.1 | 0.00 | 0.38 | 0.38 | 10 | 1018.7 |
| 20260831160248 | 76 | 291 | 0.9 | 6.1 | 0.00 | 0.38 | 0.38 | 10 | 1018.9 |
| 20260831155348 | 76 | 310 | 0.9 | 3.5 | 0.00 | 0.38 | 0.38 | 10 | 1018.9 |
| 20260831154448 | 75 | 296 | 0.9 | 3.5 | 0.00 | 0.38 | 0.38 | 10 | 1018.8 |
| 20260831153548 | 78 | 309 | 1.7 | 4.3 | 0.00 | 0.38 | 0.38 | 10 | 1018.9 |
| 20260831152648 | 78 | 332 | 1.7 | 5.2 | 0.00 | 0.38 | 0.38 | 10 | 1018.9 |
| 20260831150848 | 78 | 265 | 0.9 | 3.5 | 0.00 | 0.38 | 0.38 | 10 | 1019.1 |
| 20260831145948 | 77 | 257 | 0.0 | 5.2 | 0.00 | 0.38 | 0.38 | 10 | 1019.1 |
| 20260831145048 | 78 | 272 | 1.7 | 7.0 | 0.00 | 0.38 | 0.38 | 10 | 1019.1 |
| 20260831144148 | 76 | 198 | 0.0 | 3.5 | 0.00 | 0.38 | 0.38 | 10 | 1019.1 |
| 20260831143248 | 76 | 324 | 0.0 | 7.0 | 0.00 | 0.38 | 0.38 | 10 | 1019.3 |
| 20260831141448 | 76 | 318 | 1.7 | 5.2 | 0.00 | 0.38 | 0.38 | 10 | 1019.2 |
| 20260831140548 | 77 | 330 | 1.7 | 6.1 | 0.00 | 0.38 | 0.38 | 10 | 1019.2 |
| 20260831135648 | 78 | 328 | 1.7 | 4.3 | 0.00 | 0.38 | 0.38 | 10 | 1019.1 |
| 20260831134748 | 78 | 296 | 0.9 | 7.0 | 0.00 | 0.38 | 0.38 | 10 | 1019.0 |
| 20260831133848 | 78 | 279 | 1.7 | 7.0 | 0.00 | 0.38 | 0.38 | 10 | 1019.2 |
| 20260831132948 | 76 | 299 | 1.7 | 7.0 | 0.00 | 0.38 | 0.38 | 10 | 1019.1 |
| 20260831131148 | 72 | 298 | 1.7 | 9.6 | 0.00 | 0.38 | 0.38 | 17 | 1019.2 |
| 20260831130248 | 72 | 270 | 0.9 | 5.2 | 0.00 | 0.38 | 0.38 | 20 | 1019.4 |
| 20260831125348 | 73 | 301 | 0.0 | 3.5 | 0.00 | 0.38 | 0.38 | 20 | 1019.3 |
| 20260831124449 | 73 | 329 | 0.0 | 7.0 | 0.00 | 0.38 | 0.38 | 20 | 1019.3 |
| 20260831123548 | 71 | 317 | 0.9 | 7.0 | 0.00 | 0.38 | 0.38 | 23 | 1019.4 |
| 20260831122648 | 72 | 316 | 1.7 | 7.0 | 0.00 | 0.38 | 0.38 | 23 | 1019.4 |
| 20260831121748 | 72 | 324 | 2.6 | 6.1 | 0.00 | 0.38 | 0.38 | 26 | 1019.3 |
| 20260831120848 | 72 | 281 | 1.7 | 5.2 | 0.00 | 0.38 | 0.38 | 23 | 1019.3 |
| 20260831115948 | 75 | 320 | 1.7 | 7.0 | 0.00 | 0.38 | 0.38 | 22 | 1019.2 |
| 20260831115048 | 75 | 331 | 1.7 | 7.0 | 0.00 | 0.38 | 0.38 | 21 | 1019.4 |
| 20260831114148 | 75 | 309 | 2.6 | 7.0 | 0.00 | 0.38 | 0.38 | 23 | 1019.1 |
| 20260831113248 | 72 | 341 | 1.7 | 7.0 | 0.00 | 0.38 | 0.38 | 28 | 1019.3 |
| 20260831112348 | 71 | 302 | 1.7 | 5.2 | 0.00 | 0.38 | 0.38 | 30 | 1019.3 |
| 20260831111448 | 74 | 216 | 1.7 | 7.0 | 0.00 | 0.38 | 0.38 | 25 | 1019.3 |
| 20260831110548 | 75 | 218 | 0.9 | 6.1 | 0.00 | 0.38 | 0.38 | 28 | 1019.3 |
| 20260831105648 | 74 | 293 | 1.7 | 12.2 | 0.00 | 0.38 | 0.38 | 33 | 1019.3 |
| 20260831103848 | 73 | 300 | 1.7 | 11.3 | 0.00 | 0.38 | 0.38 | 37 | 1019.3 |
| 20260831102048 | 72 | 291 | 0.0 | 7.0 | 0.00 | 0.38 | 0.38 | 41 | 1019.4 |
| 20260831101148 | 72 | 318 | 1.7 | 8.7 | 0.00 | 0.38 | 0.38 | 45 | 1019.3 |
| 20260831100248 | 72 | 281 | 0.9 | 8.7 | 0.00 | 0.38 | 0.38 | 44 | 1019.3 |
| 20260831095348 | 71 | 319 | 1.7 | 7.0 | 0.00 | 0.38 | 0.38 | 52 | 1019.2 |
| 20260831094448 | 71 | 312 | 2.6 | 7.8 | 0.00 | 0.38 | 0.38 | 58 | 1019.1 |
| 20260831093548 | 69 | 320 | 1.7 | 7.0 | 0.00 | 0.38 | 0.38 | 69 | 1019.2 |
| 20260831091748 | 65 | 312 | 1.7 | 6.1 | 0.01 | 0.38 | 0.38 | 70 | 1019.3 |
| 20260831085948 | 66 | 315 | 1.7 | 4.3 | 0.01 | 0.38 | 0.38 | 68 | 1019.5 |
| 20260831085048 | 67 | 320 | 0.0 | 5.2 | 0.01 | 0.38 | 0.38 | 67 | 1019.4 |
| 20260831082348 | 71 | 313 | 2.6 | 7.0 | 0.01 | 0.38 | 0.38 | 66 | 1019.0 |
| 20260831080548 | 69 | 310 | 0.9 | 3.5 | 0.00 | 0.37 | 0.37 | 99 | 1018.8 |
| 20260831075648 | 67 | 314 | 1.7 | 4.3 | 0.00 | 0.37 | 0.37 | 99 | 1018.5 |
| 20260831074748 | 63 | 318 | 0.0 | 5.2 | 0.01 | 0.37 | 0.37 | 99 | 1018.5 |
| 20260831073848 | 63 | 348 | 1.7 | 5.2 | 0.02 | 0.37 | 0.37 | 99 | 1018.2 |
| 20260831072948 | 62 | 316 | 0.0 | 3.5 | 0.06 | 0.37 | 0.37 | 99 | 1018.3 |
| 20260831072048 | 62 | 324 | 0.0 | 1.7 | 0.08 | 0.37 | 0.37 | 99 | 1018.1 |
| 20260831071148 | 61 | 320 | 0.0 | 2.6 | 0.11 | 0.37 | 0.37 | 99 | 1017.8 |
| 20260831070248 | 61 | 314 | 0.0 | 1.7 | 0.18 | 0.37 | 0.37 | 99 | 1017.9 |
| 20260831065348 | 60 | 0 | 0.0 | 0.0 | 0.21 | 0.37 | 0.37 | 99 | 1017.7 |
| 20260831064448 | 60 | 314 | 0.0 | 1.7 | 0.35 | 0.35 | 0.35 | 99 | 1018.1 |
| 20260831062648 | 60 | 328 | 0.0 | 3.5 | 0.30 | 0.30 | 0.30 | 98 | 1018.5 |
| 20260831061748 | 60 | 316 | 0.0 | 2.6 | 0.27 | 0.27 | 0.28 | 95 | 1018.6 |
| 20260831060848 | 60 | 315 | 0.9 | 3.5 | 0.19 | 0.19 | 0.25 | 92 | 1018.6 |
| 20260831055948 | 60 | 333 | 0.9 | 11.3 | 0.18 | 0.18 | 0.19 | 90 | 1018.9 |
| 20260831055048 | 60 | 315 | 3.5 | 11.3 | 0.01 | 0.01 | 0.04 | 90 | 1018.8 |
| 20260831054148 | 59 | 317 | 3.5 | 6.1 | 0.00 | 0.00 | 0.00 | 90 | 1018.1 |
| 20260831053248 | 58 | 314 | 0.0 | 0.9 | 0.00 | 0.00 | 0.00 | 89 | 1017.0 |
| 20260831052348 | 58 | 0 | 0.0 | 0.0 | 0.00 | 0.00 | 0.00 | 89 | 1017.0 |
| 20260831051448 | 59 | 0 | 0.0 | 0.0 | 0.00 | 0.00 | 0.00 | 89 | 1017.0 |
| 20260831045648 | 58 | 0 | 0.0 | 0.0 | 0.00 | 0.00 | 0.00 | 89 | 1016.9 |
| 20260831044749 | 57 | 0 | 0.0 | 0.0 | 0.00 | 0.00 | 0.00 | 88 | 1017.0 |
| 20260831043848 | 57 | 0 | 0.0 | 0.0 | 0.00 | 0.00 | 0.00 | 88 | 1017.1 |
| 20260831042948 | 56 | 0 | 0.0 | 0.0 | 0.00 | 0.00 | 0.00 | 87 | 1017.1 |
| 20260831042048 | 56 | 0 | 0.0 | 0.0 | 0.00 | 0.00 | 0.00 | 87 | 1017.0 |
| 20260831041148 | 56 | 0 | 0.0 | 0.0 | 0.00 | 0.00 | 0.00 | 87 | 1017.1 |
| 20260831040248 | 56 | 0 | 0.0 | 0.0 | 0.00 | 0.00 | 0.00 | 87 | 1017.1 |
| 20260831035348 | 56 | 181 | 0.0 | 0.9 | 0.00 | 0.00 | 0.00 | 86 | 1017.1 |
| 20260831034448 | 56 | 0 | 0.0 | 0.0 | 0.00 | 0.00 | 0.00 | 86 | 1017.3 |
| 20260831032648 | 56 | 0 | 0.0 | 0.0 | 0.00 | 0.00 | 0.00 | 86 | 1017.4 |
| 20260831031748 | 56 | 1 | 0.0 | 1.7 | 0.00 | 0.00 | 0.00 | 85 | 1017.7 |
| 20260831030848 | 56 | 1 | 0.0 | 1.7 | 0.00 | 0.00 | 0.00 | 85 | 1017.8 |
| 20260831025948 | 56 | 1 | 0.0 | 1.7 | 0.00 | 0.00 | 0.00 | 85 | 1017.6 |
| 20260831025048 | 56 | 181 | 0.0 | 1.7 | 0.00 | 0.00 | 0.00 | 85 | 1017.9 |
| 20260831024148 | 56 | 181 | 0.0 | 1.7 | 0.00 | 0.00 | 0.00 | 84 | 1018.0 |
| 20260831023248 | 56 | 0 | 0.0 | 0.0 | 0.00 | 0.00 | 0.00 | 84 | 1018.1 |
| 20260831022348 | 56 | 181 | 0.0 | 0.9 | 0.00 | 0.00 | 0.00 | 84 | 1018.2 |
| 20260831021448 | 56 | 0 | 0.0 | 0.0 | 0.00 | 0.00 | 0.00 | 84 | 1018.2 |
| 20260831015648 | 56 | 181 | 0.0 | 0.9 | 0.00 | 0.00 | 0.00 | 83 | 1018.2 |
| 20260831014748 | 56 | 181 | 0.0 | 0.9 | 0.00 | 0.00 | 0.00 | 82 | 1018.2 |
| 20260831013848 | 56 | 181 | 0.0 | 1.7 | 0.00 | 0.00 | 0.00 | 81 | 1018.3 |
| 20260831012048 | 55 | 0 | 0.0 | 0.0 | 0.00 | 0.00 | 0.00 | 80 | 1018.3 |
| 20260831011148 | 55 | 0 | 0.0 | 0.0 | 0.00 | 0.00 | 0.00 | 80 | 1018.3 |
| 20260831010248 | 55 | 0 | 0.0 | 0.0 | 0.00 | 0.00 | 0.00 | 78 | 1018.3 |
| 20260831005348 | 55 | 0 | 0.0 | 0.0 | 0.00 | 0.00 | 0.00 | 78 | 1018.4 |
| 20260831004448 | 55 | 0 | 0.0 | 0.0 | 0.00 | 0.00 | 0.00 | 77 | 1018.4 |
| 20260831003547 | 55 | 181 | 0.0 | 0.9 | 0.00 | 0.00 | 0.00 | 77 | 1018.5 |
| 20260831002648 | 55 | 0 | 0.0 | 0.0 | 0.00 | 0.00 | 0.00 | 75 | 1018.6 |
| 20260831001747 | 55 | 0 | 0.0 | 0.0 | 0.00 | 0.00 | 0.00 | 75 | 1018.6 |